Time;durP1;ratioP1;P1;durP2;ratioP2;P2;SDS_P1;SDS_P2;PMS_P1;PMS_P2;Temp;Humidity;BMP_temperature;BMP_pressure;BME280_temperature;BME280_humidity;BME280_pressure;Samples;Min_cycle;Max_cycle;Signal;HPM_P1;HPM_P2
2021/06/07 00:00:25;;;;;;;4.55;2.50;;;;;;;13.44;99.41;95868.78;4828709;29;20111;-71
2021/06/07 00:03:11;;;;;;;4.68;2.40;;;;;;;13.52;99.74;95870.81;4828126;29;20081;-70
2021/06/07 00:05:36;;;;;;;3.58;2.30;;;;;;;13.53;99.61;95872.38;4822269;29;20046;-71
2021/06/07 00:08:02;;;;;;;3.20;2.20;;;;;;;13.53;99.52;95872.38;4826456;29;20046;-70
2021/06/07 00:10:28;;;;;;;2.97;2.35;;;;;;;13.52;99.41;95868.19;4820652;29;20058;-71
2021/06/07 00:12:53;;;;;;;2.53;2.13;;;;;;;13.51;99.29;95863.94;4826943;29;20080;-70
2021/06/07 00:15:23;;;;;;;3.20;2.22;;;;;;;13.48;99.23;95864.50;4823419;29;20129;-71
2021/06/07 00:17:49;;;;;;;4.53;2.30;;;;;;;13.46;99.47;95864.78;4823116;29;20050;-70
2021/06/07 00:20:22;;;;;;;3.47;2.25;;;;;;;13.47;99.38;95869.00;4822536;29;20066;-71
2021/06/07 00:22:48;;;;;;;4.82;2.63;;;;;;;13.45;99.32;95873.00;4824182;29;20051;-71
2021/06/07 00:25:13;;;;;;;3.72;2.17;;;;;;;13.41;99.25;95866.69;4830197;29;20046;-70
2021/06/07 00:27:39;;;;;;;4.20;2.40;;;;;;;13.36;99.23;95861.44;4826157;29;20129;-70
2021/06/07 00:30:07;;;;;;;2.40;2.17;;;;;;;13.31;99.26;95865.66;4823257;29;20432;-70
2021/06/07 00:32:33;;;;;;;3.92;2.28;;;;;;;13.30;99.41;95864.09;4824175;29;20129;-70
2021/06/07 00:34:58;;;;;;;3.13;2.20;;;;;;;13.33;99.83;95858.25;4824122;29;20066;-70
2021/06/07 00:37:24;;;;;;;13.05;2.60;;;;;;;13.30;99.71;95864.09;4823687;29;20409;-71
2021/06/07 00:39:49;;;;;;;3.97;2.55;;;;;;;13.32;99.85;95864.59;4826754;29;20077;-70
2021/06/07 00:42:15;;;;;;;3.72;2.40;;;;;;;13.28;99.75;95866.22;4833587;29;20531;-70
2021/06/07 00:44:41;;;;;;;4.63;2.70;;;;;;;13.26;99.74;95863.09;4842390;29;20123;-71
2021/06/07 00:47:08;;;;;;;2.88;2.30;;;;;;;13.26;99.87;95868.38;4833302;29;20538;-70
2021/06/07 00:49:34;;;;;;;4.38;2.30;;;;;;;13.26;99.77;95865.72;4830443;29;20050;-70
2021/06/07 00:51:59;;;;;;;4.53;2.40;;;;;;;13.20;99.80;95864.16;4823322;29;20508;-70
2021/06/07 00:54:25;;;;;;;3.53;2.58;;;;;;;13.20;99.81;95858.88;4823814;29;20147;-70
2021/06/07 00:56:51;;;;;;;7.22;3.40;;;;;;;13.21;100.00;95855.19;4837698;29;20062;-70
2021/06/07 00:59:17;;;;;;;6.40;3.30;;;;;;;13.22;100.00;95856.78;4822710;29;20055;-70
2021/06/07 01:01:43;;;;;;;7.30;2.72;;;;;;;13.19;100.00;95857.31;4830155;29;20049;-70
2021/06/07 01:04:09;;;;;;;5.10;2.85;;;;;;;13.15;100.00;95851.03;4836512;29;20052;-70
2021/06/07 01:06:36;;;;;;;5.78;2.97;;;;;;;13.14;100.00;95849.44;4823248;29;20645;-70
2021/06/07 01:09:04;;;;;;;4.28;2.85;;;;;;;13.15;100.00;95848.38;4817947;29;20078;-70
2021/06/07 01:11:32;;;;;;;4.13;2.63;;;;;;;13.07;100.00;95841.03;4827923;29;20102;-70
2021/06/07 01:13:58;;;;;;;4.50;2.78;;;;;;;13.06;100.00;95850.03;4828070;29;20469;-70
2021/06/07 01:16:24;;;;;;;3.72;2.30;;;;;;;13.02;100.00;95851.66;4823116;29;20042;-70
2021/06/07 01:18:50;;;;;;;3.50;2.65;;;;;;;12.99;100.00;95858.28;4822760;29;20093;-70
2021/06/07 01:21:24;;;;;;;4.18;2.63;;;;;;;12.92;99.96;95855.94;4832094;29;20049;-70
2021/06/07 01:23:53;;;;;;;7.35;2.83;;;;;;;12.86;99.91;95854.41;4837083;29;20532;-70
2021/06/07 01:26:21;;;;;;;3.88;2.70;;;;;;;12.86;100.00;95854.41;4830813;29;20066;-70
2021/06/07 01:28:49;;;;;;;6.22;2.95;;;;;;;12.91;100.00;95846.44;4818339;29;20047;-70
2021/06/07 01:31:15;;;;;;;3.78;2.80;;;;;;;12.94;100.00;95840.63;4818174;29;20055;-70
2021/06/07 01:33:44;;;;;;;3.97;3.00;;;;;;;12.90;100.00;95844.88;4822780;29;20130;-70
2021/06/07 01:36:10;;;;;;;7.57;2.85;;;;;;;12.87;99.92;95841.97;4828947;29;20081;-70
2021/06/07 01:38:36;;;;;;;4.25;2.70;;;;;;;12.86;100.00;95843.84;4830783;29;20103;-70
2021/06/07 01:41:05;;;;;;;5.18;2.90;;;;;;;12.88;100.00;95852.25;4823200;29;20418;-70
2021/06/07 01:43:32;;;;;;;4.30;2.90;;;;;;;12.86;100.00;95854.41;4822765;29;20227;-70
2021/06/07 01:45:58;;;;;;;4.68;3.13;;;;;;;12.91;100.00;95845.66;4821800;29;20057;-70
2021/06/07 01:48:25;;;;;;;7.75;3.25;;;;;;;12.94;100.00;95845.91;4836945;29;20047;-70
2021/06/07 01:50:53;;;;;;;6.60;3.20;;;;;;;12.95;100.00;95847.47;4836223;29;20046;-70
2021/06/07 01:53:21;;;;;;;4.15;2.70;;;;;;;12.95;100.00;95842.19;4822574;29;20047;-70
2021/06/07 01:55:50;;;;;;;5.50;2.50;;;;;;;12.95;100.00;95846.69;4826626;29;20042;-70
2021/06/07 01:58:18;;;;;;;4.13;2.42;;;;;;;12.90;100.00;95844.88;4826230;29;20501;-70
2021/06/07 02:00:45;;;;;;;4.50;2.70;;;;;;;12.87;100.00;95845.41;4830030;29;20046;-70
2021/06/07 02:03:16;;;;;;;3.63;2.67;;;;;;;12.85;100.00;95842.25;4822077;29;20042;-70
2021/06/07 02:05:44;;;;;;;4.75;2.53;;;;;;;12.84;100.00;95856.50;4830613;29;20077;-70
2021/06/07 02:08:12;;;;;;;4.90;2.63;;;;;;;12.82;100.00;95858.66;4822225;29;20103;-70
2021/06/07 02:10:40;;;;;;;5.47;3.08;;;;;;;12.86;100.00;95859.69;4822852;29;20062;-70
2021/06/07 02:13:08;;;;;;;5.63;3.67;;;;;;;12.86;100.00;95858.88;4822201;29;20084;-70
2021/06/07 02:15:34;;;;;;;4.28;3.28;;;;;;;12.84;100.00;95859.16;4824355;29;20046;-70
2021/06/07 02:18:01;;;;;;;4.68;3.90;;;;;;;12.86;100.00;95858.88;4831133;29;20496;-70
2021/06/07 02:20:27;;;;;;;6.00;3.60;;;;;;;12.87;100.00;95855.97;4832228;29;20055;-70
2021/06/07 02:22:53;;;;;;;4.28;3.40;;;;;;;12.88;100.00;95851.50;4836204;29;20043;-70
2021/06/07 02:25:21;;;;;;;5.28;3.35;;;;;;;12.88;100.00;95857.53;4822014;29;20050;-70
2021/06/07 02:27:47;;;;;;;6.22;3.40;;;;;;;12.87;100.00;95850.69;4822078;29;20046;-70
2021/06/07 02:30:17;;;;;;;6.28;3.08;;;;;;;12.87;100.00;95845.41;4830985;29;20488;-71
2021/06/07 02:32:43;;;;;;;4.95;2.90;;;;;;;12.89;100.00;95853.84;4822240;29;20046;-70
2021/06/07 02:35:11;;;;;;;3.83;3.20;;;;;;;12.85;100.00;95858.09;4822531;29;20066;-70
2021/06/07 02:37:37;;;;;;;6.30;2.90;;;;;;;12.85;100.00;95858.09;4821322;29;20111;-70
2021/06/07 02:40:05;;;;;;;3.60;2.78;;;;;;;12.81;100.00;95851.78;4828357;29;20054;-70
2021/06/07 02:42:32;;;;;;;3.88;3.03;;;;;;;12.81;100.00;95851.78;4832468;29;20046;-70
2021/06/07 02:44:58;;;;;;;5.63;3.10;;;;;;;12.81;100.00;95851.78;4832970;29;20043;-70
2021/06/07 02:47:23;;;;;;;6.57;3.03;;;;;;;12.79;100.00;95853.94;4805473;29;20378;-71
2021/06/07 02:49:49;;;;;;;4.70;2.83;;;;;;;12.78;100.00;95853.13;4818250;29;20500;-70
2021/06/07 02:52:15;;;;;;;5.07;2.88;;;;;;;12.76;100.00;95849.19;4826597;29;20099;-71
2021/06/07 02:54:40;;;;;;;5.03;2.78;;;;;;;12.75;100.00;95852.91;4821412;29;20610;-71
2021/06/07 02:57:06;;;;;;;3.55;3.00;;;;;;;12.72;100.00;95848.16;4821953;29;20050;-71
2021/06/07 02:59:32;;;;;;;5.13;2.90;;;;;;;12.72;100.00;95848.16;4825727;29;20054;-70
2021/06/07 03:01:57;;;;;;;6.00;3.08;;;;;;;12.76;100.00;95849.19;4826726;29;20061;-70
2021/06/07 03:04:23;;;;;;;4.88;2.75;;;;;;;12.75;100.00;95847.63;4823084;29;20510;-70
2021/06/07 03:06:49;;;;;;;3.70;2.58;;;;;;;12.72;100.00;95848.16;4830665;29;20072;-70
2021/06/07 03:09:14;;;;;;;3.55;2.95;;;;;;;12.69;100.00;95854.00;4821135;29;20528;-70
2021/06/07 03:11:40;;;;;;;3.72;2.85;;;;;;;12.67;100.00;95853.47;4822114;29;20046;-72
2021/06/07 03:14:05;;;;;;;4.00;2.78;;;;;;;12.64;100.00;95858.25;4821316;29;20524;-72
2021/06/07 03:16:31;;;;;;;4.55;3.00;;;;;;;12.63;100.00;95861.94;4845462;29;20079;-72
2021/06/07 03:18:57;;;;;;;4.32;2.88;;;;;;;12.64;100.00;95863.53;4834560;29;20049;-72
2021/06/07 03:21:22;;;;;;;4.30;3.05;;;;;;;12.67;100.00;95850.81;4824325;29;20039;-72
2021/06/07 03:23:48;;;;;;;5.78;3.63;;;;;;;12.67;100.00;95856.09;4832414;29;20073;-72
2021/06/07 03:26:14;;;;;;;7.40;3.50;;;;;;;12.69;100.00;95856.63;4831560;29;20046;-72
2021/06/07 03:28:39;;;;;;;6.03;3.58;;;;;;;12.68;100.00;95863.75;4809220;29;20046;-72
2021/06/07 03:31:07;;;;;;;6.10;3.60;;;;;;;12.70;100.00;95858.19;4810308;29;20434;-70
2021/06/07 03:33:34;;;;;;;4.13;2.63;;;;;;;12.70;100.00;95856.38;4821229;29;20086;-71
2021/06/07 03:36:00;;;;;;;6.10;3.00;;;;;;;12.71;100.00;95859.78;4820240;29;20107;-71
2021/06/07 03:38:27;;;;;;;5.43;3.58;;;;;;;12.71;100.00;95857.13;4821516;29;20054;-70
2021/06/07 03:40:55;;;;;;;6.07;3.88;;;;;;;12.74;100.00;95861.88;4820969;29;20532;-71
2021/06/07 03:43:28;;;;;;;7.68;3.88;;;;;;;12.78;100.00;95857.63;4820966;29;20054;-71
2021/06/07 03:45:54;;;;;;;5.72;3.67;;;;;;;12.80;100.00;95866.03;4807256;29;20091;-71
2021/06/07 03:48:20;;;;;;;6.90;3.63;;;;;;;12.80;100.00;95860.75;4820778;29;20071;-71
2021/06/07 03:50:46;;;;;;;5.07;4.00;;;;;;;12.83;100.00;95865.53;4822234;29;20054;-71
2021/06/07 03:53:12;;;;;;;4.15;3.65;;;;;;;12.85;100.00;95863.38;4824814;29;20051;-71
2021/06/07 03:55:40;;;;;;;4.75;3.92;;;;;;;12.90;100.00;95858.06;4824659;29;20065;-71
2021/06/07 03:58:06;;;;;;;6.40;4.13;;;;;;;12.94;100.00;95867.03;4838374;29;20050;-71
2021/06/07 04:00:35;;;;;;;8.85;3.95;;;;;;;12.96;99.91;95864.91;4824160;29;20043;-71
2021/06/07 04:03:05;;;;;;;4.45;4.00;;;;;;;12.97;99.98;95855.91;4824478;29;20042;-71
2021/06/07 04:05:31;;;;;;;8.75;4.28;;;;;;;13.04;100.00;95854.81;4820822;29;20065;-71
2021/06/07 04:07:56;;;;;;;9.07;4.40;;;;;;;13.03;99.77;95866.44;4820699;29;20126;-71
2021/06/07 04:10:24;;;;;;;5.85;4.20;;;;;;;13.06;99.89;95868.50;4824359;29;20081;-71
2021/06/07 04:12:50;;;;;;;7.10;4.30;;;;;;;13.09;99.84;95867.97;4824413;29;20141;-71
2021/06/07 04:15:22;;;;;;;5.78;3.95;;;;;;;13.15;99.69;95866.88;4818220;29;20103;-71
2021/06/07 04:17:49;;;;;;;6.38;3.92;;;;;;;13.18;99.72;95855.75;4824081;29;20058;-71
2021/06/07 04:20:17;;;;;;;4.60;3.83;;;;;;;13.30;99.40;95869.41;4823136;29;20578;-71
2021/06/07 04:22:46;;;;;;;4.20;3.60;;;;;;;13.33;98.80;95863.56;4824165;29;20050;-71
2021/06/07 04:25:14;;;;;;;5.07;3.63;;;;;;;13.31;98.79;95870.94;4824303;29;20113;-71
2021/06/07 04:27:40;;;;;;;6.85;3.40;;;;;;;13.32;98.87;95867.25;4822790;29;20478;-70
2021/06/07 04:30:12;;;;;;;5.05;3.08;;;;;;;13.37;98.62;95873.59;4823746;29;20057;-71
2021/06/07 04:32:39;;;;;;;5.28;3.15;;;;;;;13.42;98.74;95865.59;4823834;29;20508;-70
2021/06/07 04:35:06;;;;;;;3.70;3.20;;;;;;;13.47;98.77;95874.28;4823676;29;20053;-70
2021/06/07 04:37:32;;;;;;;4.22;2.90;;;;;;;13.53;98.42;95872.38;4823030;29;20058;-71
2021/06/07 04:39:58;;;;;;;4.80;3.55;;;;;;;13.54;98.57;95871.31;4823914;29;20046;-71
2021/06/07 04:42:24;;;;;;;3.50;2.72;;;;;;;13.52;97.91;95870.81;4823609;29;20053;-71
2021/06/07 04:44:50;;;;;;;4.15;2.75;;;;;;;13.49;97.85;95866.88;4823436;29;20125;-71
2021/06/07 04:47:16;;;;;;;5.20;2.78;;;;;;;13.53;98.29;95867.09;4823001;29;20129;-70
2021/06/07 04:49:41;;;;;;;3.40;2.70;;;;;;;13.63;98.57;95871.50;4822905;29;20141;-71
2021/06/07 04:52:07;;;;;;;4.07;2.80;;;;;;;13.66;98.69;95877.03;4823236;29;20062;-70
2021/06/07 04:54:33;;;;;;;3.83;2.60;;;;;;;13.73;98.71;95876.69;4823701;29;20046;-70
2021/06/07 04:56:58;;;;;;;3.42;2.60;;;;;;;13.78;98.48;95867.94;4823441;29;20050;-70
2021/06/07 04:59:24;;;;;;;3.50;2.50;;;;;;;13.77;98.10;95882.22;4822731;29;20470;-71
2021/06/07 05:01:49;;;;;;;2.92;2.40;;;;;;;13.75;97.98;95873.75;4821872;29;20043;-70
2021/06/07 05:04:15;;;;;;;5.32;2.90;;;;;;;13.81;97.99;95873.44;4837442;29;20043;-70
2021/06/07 05:06:40;;;;;;;5.97;2.97;;;;;;;13.87;98.30;95876.81;4822356;29;20141;-71
2021/06/07 05:09:06;;;;;;;4.65;3.00;;;;;;;13.97;98.90;95882.00;4823373;29;20053;-70
2021/06/07 05:11:32;;;;;;;3.10;2.53;;;;;;;13.99;97.73;95874.56;4823045;29;20050;-70
2021/06/07 05:13:57;;;;;;;3.78;2.70;;;;;;;14.00;98.05;95881.41;4823823;29;20050;-70
2021/06/07 05:16:23;;;;;;;3.75;2.40;;;;;;;14.04;97.36;95874.50;4822470;29;20065;-70
2021/06/07 05:18:48;;;;;;;2.60;2.20;;;;;;;13.99;96.55;95879.88;4823086;29;20452;-70
2021/06/07 05:21:14;;;;;;;2.83;2.25;;;;;;;14.03;96.37;95875.56;4823081;29;20046;-70
2021/06/07 05:23:40;;;;;;;4.47;2.40;;;;;;;14.15;96.25;95871.72;4830462;29;20114;-70
2021/06/07 05:26:06;;;;;;;4.40;2.40;;;;;;;14.07;96.24;95875.81;4822216;29;20050;-70
2021/06/07 05:28:31;;;;;;;3.33;2.63;;;;;;;14.08;96.56;95871.28;4823116;29;20069;-70
2021/06/07 05:30:57;;;;;;;3.75;2.30;;;;;;;14.11;95.91;95876.03;4822465;29;20458;-70
2021/06/07 05:33:23;;;;;;;3.90;2.55;;;;;;;14.13;95.86;95873.88;4822586;29;20046;-70
2021/06/07 05:35:51;;;;;;;4.70;2.50;;;;;;;14.21;96.31;95870.63;4836327;29;20133;-70
2021/06/07 05:38:19;;;;;;;5.68;3.10;;;;;;;14.22;96.08;95872.19;4822436;29;20046;-70
2021/06/07 05:40:45;;;;;;;4.60;3.00;;;;;;;14.28;96.82;95871.06;4822684;29;20425;-70
2021/06/07 05:43:11;;;;;;;4.70;3.05;;;;;;;14.29;96.49;95872.63;4823179;29;20054;-70
2021/06/07 05:45:38;;;;;;;4.97;2.60;;;;;;;14.36;96.17;95873.06;4822528;29;20406;-70
2021/06/07 05:48:05;;;;;;;5.57;2.75;;;;;;;14.42;95.99;95871.13;4822011;29;20066;-71
2021/06/07 05:50:33;;;;;;;5.00;2.50;;;;;;;14.41;95.11;95879.38;4822390;29;20058;-70
2021/06/07 05:52:59;;;;;;;2.92;2.00;;;;;;;14.48;94.56;95877.97;4822954;29;20054;-70
2021/06/07 05:55:31;;;;;;;4.50;2.00;;;;;;;14.43;93.71;95882.53;4822132;29;20054;-70
2021/06/07 05:58:00;;;;;;;2.92;2.08;;;;;;;14.48;96.03;95879.81;4836554;29;20055;-71
2021/06/07 06:00:28;;;;;;;2.63;1.80;;;;;;;14.49;93.98;95876.09;4819420;29;20523;-71
2021/06/07 06:02:53;;;;;;;2.25;1.40;;;;;;;14.47;92.83;95878.25;4822708;29;20130;-70
2021/06/07 06:05:19;;;;;;;2.53;1.60;;;;;;;14.47;92.93;95878.25;4823295;29;20159;-70
2021/06/07 06:07:46;;;;;;;2.60;1.80;;;;;;;14.47;93.41;95884.31;4831947;29;20399;-70
2021/06/07 06:10:13;;;;;;;2.05;1.80;;;;;;;14.52;95.21;95889.56;4822020;29;20142;-71
2021/06/07 06:12:40;;;;;;;1.38;1.27;;;;;;;14.58;94.86;95890.25;4822264;29;20520;-71
2021/06/07 06:15:07;;;;;;;1.92;1.40;;;;;;;14.62;94.44;95886.00;4822183;29;20050;-71
2021/06/07 06:17:33;;;;;;;2.40;1.60;;;;;;;14.61;93.30;95889.72;4821433;29;20057;-71
2021/06/07 06:19:58;;;;;;;3.55;1.52;;;;;;;14.71;94.73;95889.59;4821916;29;20113;-71
2021/06/07 06:22:24;;;;;;;2.72;2.00;;;;;;;14.78;94.63;95891.09;4822101;29;20049;-71
2021/06/07 06:24:50;;;;;;;2.38;2.00;;;;;;;14.87;94.32;95897.34;4822059;29;20095;-71
2021/06/07 06:27:16;;;;;;;3.63;2.00;;;;;;;14.96;94.19;95895.59;4821560;29;20555;-71
2021/06/07 06:29:43;;;;;;;3.15;1.90;;;;;;;15.10;94.31;95894.88;4821863;29;20482;-70
2021/06/07 06:32:10;;;;;;;4.05;2.30;;;;;;;15.17;94.40;95900.59;4835821;29;20110;-71
2021/06/07 06:34:38;;;;;;;2.90;2.22;;;;;;;15.22;94.60;95897.88;4822032;29;20454;-70
2021/06/07 06:37:04;;;;;;;4.22;2.40;;;;;;;15.30;95.22;95899.88;4821041;29;20126;-71
2021/06/07 06:39:30;;;;;;;3.33;2.30;;;;;;;15.35;93.42;95891.81;4836006;29;20421;-70
2021/06/07 06:41:56;;;;;;;2.83;2.08;;;;;;;15.44;94.21;95893.81;4822209;29;20050;-71
2021/06/07 06:44:21;;;;;;;4.93;2.30;;;;;;;15.43;92.43;95898.34;4822163;29;20062;-71
2021/06/07 06:46:47;;;;;;;2.53;2.08;;;;;;;15.51;89.98;95894.22;4820663;29;20038;-70
2021/06/07 06:49:13;;;;;;;2.80;2.10;;;;;;;15.48;92.56;95892.16;4821434;29;20058;-71
2021/06/07 06:51:38;;;;;;;3.38;2.33;;;;;;;15.54;91.50;95896.28;4821373;29;20065;-71
2021/06/07 06:54:04;;;;;;;3.78;2.30;;;;;;;15.57;94.22;95895.69;4820832;29;20053;-71
2021/06/07 06:56:30;;;;;;;4.68;2.60;;;;;;;15.65;91.56;95895.03;4821077;29;20060;-71
2021/06/07 06:58:55;;;;;;;3.75;2.38;;;;;;;15.67;92.53;95892.88;4821489;29;20038;-71
2021/06/07 07:01:22;;;;;;;2.85;2.33;;;;;;;15.60;92.52;95897.78;4821662;29;20488;-71
2021/06/07 07:03:50;;;;;;;3.08;2.33;;;;;;;15.65;93.34;95897.69;4820353;29;20065;-71
2021/06/07 07:06:15;;;;;;;5.68;2.30;;;;;;;15.60;90.90;95897.78;4825367;29;20057;-71
2021/06/07 07:08:41;;;;;;;3.45;2.42;;;;;;;15.81;92.71;95897.47;4825238;29;20050;-72
2021/06/07 07:11:06;;;;;;;2.53;2.00;;;;;;;15.72;91.06;95895.44;4820564;29;20054;-72
2021/06/07 07:13:33;;;;;;;5.38;2.28;;;;;;;15.76;90.86;95901.75;4831117;29;20064;-72
2021/06/07 07:15:58;;;;;;;2.80;2.20;;;;;;;15.81;91.04;95902.78;4829304;29;20042;-72
2021/06/07 07:18:24;;;;;;;3.63;2.50;;;;;;;15.85;90.71;95903.75;4820993;29;20536;-72
2021/06/07 07:20:49;;;;;;;3.30;2.28;;;;;;;15.86;90.04;95900.00;4820789;29;20050;-72
2021/06/07 07:23:15;;;;;;;3.30;2.22;;;;;;;15.98;90.94;95902.19;4821415;29;20121;-72
2021/06/07 07:25:42;;;;;;;4.35;2.60;;;;;;;16.11;91.06;95902.19;4820073;29;20050;-71
2021/06/07 07:28:09;;;;;;;3.42;2.60;;;;;;;16.06;90.79;95904.16;4821608;29;20501;-71
2021/06/07 07:30:38;;;;;;;2.70;2.20;;;;;;;15.87;89.69;95906.91;4820713;29;20069;-71
2021/06/07 07:33:05;;;;;;;2.88;2.38;;;;;;;16.20;90.03;95904.94;4818192;29;20050;-71
2021/06/07 07:35:31;;;;;;;4.53;2.40;;;;;;;16.32;87.22;95912.44;4818852;29;20039;-71
2021/06/07 07:37:56;;;;;;;3.20;2.58;;;;;;;16.26;87.78;95911.75;4816846;29;20065;-71
2021/06/07 07:40:24;;;;;;;3.72;2.25;;;;;;;16.28;90.06;95911.44;4829293;29;20054;-71
2021/06/07 07:42:51;;;;;;;2.80;2.40;;;;;;;16.32;89.18;95911.63;4820787;29;20067;-70
2021/06/07 07:45:20;;;;;;;2.90;2.25;;;;;;;16.35;86.69;95911.84;4823648;29;20046;-71
2021/06/07 07:47:46;;;;;;;3.38;2.70;;;;;;;16.64;91.81;95916.03;4805280;29;20050;-70
2021/06/07 07:50:15;;;;;;;3.67;2.25;;;;;;;16.63;88.19;95911.78;4815292;29;20047;-70
2021/06/07 07:52:41;;;;;;;3.95;2.40;;;;;;;16.86;87.88;95909.19;4817336;29;20457;-70
2021/06/07 07:55:18;;;;;;;2.35;2.15;;;;;;;16.88;85.90;95913.16;4815410;29;20402;-70
2021/06/07 07:57:44;;;;;;;2.80;2.25;;;;;;;16.92;88.76;95908.03;4813996;29;20050;-69
2021/06/07 08:00:11;;;;;;;3.28;2.10;;;;;;;17.11;85.37;95908.66;4815866;29;21960;-69
2021/06/07 08:02:37;;;;;;;5.40;2.20;;;;;;;16.89;86.04;95905.97;4814530;29;20070;-70
2021/06/07 08:05:04;;;;;;;3.10;2.20;;;;;;;16.99;83.87;95905.72;4817212;29;20564;-69
2021/06/07 08:07:30;;;;;;;3.70;2.20;;;;;;;17.13;85.94;95911.78;4818867;29;20445;-69
2021/06/07 08:09:55;;;;;;;8.13;2.50;;;;;;;17.29;84.16;95900.81;4815066;29;20126;-69
2021/06/07 08:12:21;;;;;;;2.97;2.13;;;;;;;17.28;85.01;95904.53;4815460;29;20141;-68
2021/06/07 08:14:46;;;;;;;4.60;2.17;;;;;;;17.34;83.93;95898.03;4819196;29;20057;-70
2021/06/07 08:17:14;;;;;;;3.22;2.10;;;;;;;17.42;86.47;95905.25;4814307;29;20437;-69
2021/06/07 08:19:39;;;;;;;1.75;1.65;;;;;;;17.45;85.17;95909.19;4817618;29;20043;-69
2021/06/07 08:22:05;;;;;;;3.00;1.70;;;;;;;17.72;84.70;95896.84;4826078;29;20091;-69
2021/06/07 08:24:31;;;;;;;2.28;2.05;;;;;;;17.95;84.00;95905.59;4828700;29;20119;-70
2021/06/07 08:26:56;;;;;;;3.38;1.80;;;;;;;17.75;82.56;95901.56;4820548;29;20161;-67
2021/06/07 08:29:22;;;;;;;2.42;1.60;;;;;;;17.75;83.08;95902.31;4820478;29;20046;-68
2021/06/07 08:31:48;;;;;;;4.85;1.95;;;;;;;17.43;83.21;95906.06;4820263;29;20061;-68
2021/06/07 08:34:13;;;;;;;2.00;1.80;;;;;;;17.19;82.88;95898.38;4820623;29;20058;-72
2021/06/07 08:36:39;;;;;;;2.17;1.65;;;;;;;17.29;85.51;95906.13;4821968;29;20042;-71
2021/06/07 08:39:08;;;;;;;6.40;2.13;;;;;;;17.03;83.51;95908.59;4823190;29;20050;-72
2021/06/07 08:41:34;;;;;;;1.98;1.60;;;;;;;17.16;84.36;95896.34;4822591;29;20038;-70
2021/06/07 08:44:00;;;;;;;3.30;1.80;;;;;;;16.99;85.20;95897.75;4823582;29;20043;-70
2021/06/07 08:46:26;;;;;;;1.98;1.70;;;;;;;17.10;87.45;95909.75;4823334;29;20042;-70
2021/06/07 08:48:51;;;;;;;1.98;1.50;;;;;;;17.16;88.19;95912.28;4823857;29;20053;-70
2021/06/07 08:51:17;;;;;;;2.83;1.42;;;;;;;17.18;86.21;95910.09;4822451;29;20046;-71
2021/06/07 08:53:43;;;;;;;1.60;1.38;;;;;;;17.22;83.74;95911.06;4823408;29;20057;-71
2021/06/07 08:56:08;;;;;;;2.38;1.40;;;;;;;17.18;84.36;95916.19;4822445;29;20081;-71
2021/06/07 08:58:34;;;;;;;2.03;1.30;;;;;;;16.93;85.02;95910.38;4823420;29;20110;-71
2021/06/07 09:01:00;;;;;;;4.00;1.65;;;;;;;16.93;87.03;95909.59;4822827;29;20079;-71
2021/06/07 09:03:31;;;;;;;2.88;1.60;;;;;;;16.99;87.00;95911.06;4823760;29;20089;-71
2021/06/07 09:05:59;;;;;;;2.10;1.50;;;;;;;17.02;86.23;95918.41;4825630;29;20058;-71
2021/06/07 09:08:30;;;;;;;3.10;1.70;;;;;;;16.94;85.33;95916.50;4836691;29;20684;-71
2021/06/07 09:10:56;;;;;;;3.00;1.77;;;;;;;16.88;85.64;95912.34;4842144;29;20508;-71
2021/06/07 09:13:27;;;;;;;3.92;1.60;;;;;;;16.91;88.37;95919.72;4825886;29;20111;-71
2021/06/07 09:15:55;;;;;;;1.60;1.50;;;;;;;17.04;86.03;95916.25;4820407;29;20505;-71
2021/06/07 09:18:35;;;;;;;1.50;1.40;;;;;;;17.15;88.09;95919.47;4823161;29;20130;-71
2021/06/07 09:21:13;;;;;;;2.05;1.63;;;;;;;17.26;84.20;95917.38;4823122;29;20130;-71
2021/06/07 09:23:48;;;;;;;2.78;1.70;;;;;;;17.40;87.00;95917.31;4823269;29;20199;-71
2021/06/07 09:26:42;;;;;;;3.67;1.80;;;;;;;17.59;86.32;95915.22;4823363;29;20060;-72
2021/06/07 09:29:14;;;;;;;1.63;1.52;;;;;;;17.78;82.12;95907.03;4821723;29;20423;-71
2021/06/07 09:31:42;;;;;;;2.55;1.80;;;;;;;17.74;81.67;95906.09;4823490;29;20509;-70
2021/06/07 09:34:09;;;;;;;3.42;1.50;;;;;;;17.51;81.23;95912.53;4823223;29;20039;-71
2021/06/07 09:36:52;;;;;;;2.47;1.83;;;;;;;17.45;82.57;95915.28;4815888;29;20425;-69
2021/06/07 09:39:24;;;;;;;3.47;1.80;;;;;;;17.55;86.56;95918.81;4805069;29;20438;-71
2021/06/07 09:42:01;;;;;;;3.78;1.80;;;;;;;17.67;84.55;95917.16;4816008;29;20305;-70
2021/06/07 09:44:37;;;;;;;2.20;1.70;;;;;;;17.80;82.67;95914.72;4819274;29;20035;-71
2021/06/07 09:47:23;;;;;;;4.47;1.60;;;;;;;17.66;82.05;95920.13;4808402;29;20054;-72
2021/06/07 09:50:10;;;;;;;3.03;1.75;;;;;;;17.60;81.75;95918.69;4822591;29;20149;-70
2021/06/07 09:52:45;;;;;;;2.05;1.42;;;;;;;17.62;83.18;95919.16;4822972;29;20648;-71
2021/06/07 09:55:13;;;;;;;2.47;1.70;;;;;;;17.78;82.94;95907.03;4822779;29;20051;-71
2021/06/07 09:57:52;;;;;;;1.83;1.70;;;;;;;17.69;79.45;95924.84;4822819;29;20058;-71
2021/06/07 10:00:42;;;;;;;2.63;1.85;;;;;;;17.76;85.86;95914.56;4822259;29;20051;-71
2021/06/07 10:03:19;;;;;;;4.38;1.77;;;;;;;17.88;82.02;95915.88;4822693;29;20121;-71
2021/06/07 10:05:53;;;;;;;1.92;1.80;;;;;;;17.87;83.35;95916.94;4818221;29;20126;-70
2021/06/07 10:08:22;;;;;;;3.47;1.83;;;;;;;17.88;79.10;95915.88;4821110;29;20072;-71
2021/06/07 10:10:49;;;;;;;3.45;2.03;;;;;;;17.79;85.76;95913.16;4822509;29;20046;-70
2021/06/07 10:13:15;;;;;;;2.10;1.83;;;;;;;17.82;84.08;95918.66;4821448;29;20046;-70
2021/06/07 10:15:42;;;;;;;2.20;1.90;;;;;;;17.98;81.35;95915.63;4821607;29;20075;-70
2021/06/07 10:18:11;;;;;;;2.40;2.20;;;;;;;18.06;82.88;95914.06;4822610;29;20412;-70
2021/06/07 10:20:46;;;;;;;2.65;2.45;;;;;;;18.17;79.28;95918.84;4821743;29;20051;-71
2021/06/07 10:23:23;;;;;;;3.40;2.10;;;;;;;17.90;75.90;95919.00;4835927;29;20527;-70
2021/06/07 10:25:49;;;;;;;4.30;2.60;;;;;;;18.25;82.72;95919.19;4822201;29;20038;-70
2021/06/07 10:28:15;;;;;;;4.50;2.38;;;;;;;18.44;83.31;95917.03;4822163;29;20050;-71
2021/06/07 10:30:46;;;;;;;4.05;2.20;;;;;;;18.51;78.80;95912.03;4804587;29;20082;-71
2021/06/07 10:33:35;;;;;;;2.10;1.90;;;;;;;18.44;76.95;95925.03;4804098;29;20399;-70
2021/06/07 10:36:20;;;;;;;3.05;2.10;;;;;;;18.45;74.36;95921.28;4809056;29;20580;-70
2021/06/07 10:38:45;;;;;;;3.35;2.13;;;;;;;18.40;76.54;95916.06;4821194;29;20046;-70
2021/06/07 10:41:25;;;;;;;2.30;2.10;;;;;;;18.39;78.35;95921.72;4835962;29;20103;-70
2021/06/07 10:43:54;;;;;;;2.88;2.10;;;;;;;18.38;78.33;95915.63;4819328;29;20050;-70
2021/06/07 10:46:25;;;;;;;4.38;2.47;;;;;;;18.21;78.38;95920.88;4821774;29;20054;-70
2021/06/07 10:48:52;;;;;;;3.65;2.38;;;;;;;18.18;79.66;95915.06;4819474;29;20049;-70
2021/06/07 10:51:26;;;;;;;3.55;2.60;;;;;;;18.71;77.67;95920.53;4820227;29;20047;-73
2021/06/07 10:53:54;;;;;;;4.43;2.38;;;;;;;19.10;75.53;95921.53;4822329;29;20082;-71
2021/06/07 10:56:27;;;;;;;2.78;2.35;;;;;;;19.33;73.55;95921.38;4821526;29;20046;-70
2021/06/07 10:58:58;;;;;;;3.20;2.80;;;;;;;19.30;75.52;95919.34;4820973;29;20497;-70
2021/06/07 11:01:51;;;;;;;3.13;2.80;;;;;;;19.01;77.32;95915.44;4821273;29;20042;-70
2021/06/07 11:04:33;;;;;;;3.75;2.70;;;;;;;18.92;77.97;95909.28;4821880;29;20042;-71
2021/06/07 11:07:22;;;;;;;6.25;3.10;;;;;;;19.04;79.36;95914.81;4821232;29;20058;-70
2021/06/07 11:10:09;;;;;;;4.13;2.90;;;;;;;18.93;78.34;95913.53;4825170;29;20065;-70
2021/06/07 11:12:36;;;;;;;6.13;3.33;;;;;;;19.06;75.30;95915.25;4819994;29;20054;-70
2021/06/07 11:15:15;;;;;;;5.95;3.20;;;;;;;19.49;77.31;95911.78;4820772;29;20055;-70
2021/06/07 11:17:42;;;;;;;3.95;3.10;;;;;;;19.39;74.98;95912.09;4818266;29;20641;-70
2021/06/07 11:20:09;;;;;;;4.00;3.20;;;;;;;19.46;72.32;95911.63;4820010;29;20054;-69
2021/06/07 11:23:07;;;;;;;3.50;3.00;;;;;;;19.26;71.93;95907.75;4829392;29;20126;-70
2021/06/07 11:25:46;;;;;;;4.40;3.40;;;;;;;19.72;72.79;95904.38;4836564;29;20053;-69
2021/06/07 11:28:29;;;;;;;3.63;2.92;;;;;;;19.89;73.70;95900.88;4821587;29;20046;-70
2021/06/07 11:30:56;;;;;;;4.05;3.50;;;;;;;19.65;73.05;95897.94;4820775;29;20043;-70
2021/06/07 11:33:22;;;;;;;7.50;3.53;;;;;;;19.75;72.91;95902.94;4820286;29;20050;-69
2021/06/07 11:35:48;;;;;;;6.32;3.10;;;;;;;19.96;75.74;95899.63;4820325;29;20049;-70